createdAt,value
2023-03-21T00:00:58.009Z,25.23
2023-03-21T00:05:05.888Z,25.24
2023-03-21T00:08:59.027Z,25.23
2023-03-21T00:12:57.983Z,25.23
2023-03-21T00:16:57.967Z,25.21
2023-03-21T00:21:15.737Z,25.20
2023-03-21T00:24:59.111Z,25.23
2023-03-21T00:28:58.100Z,25.23
2023-03-21T00:33:01.461Z,25.21
2023-03-21T00:36:59.062Z,25.20
2023-03-21T00:41:01.914Z,25.21
2023-03-21T00:44:58.988Z,25.23
2023-03-21T00:48:57.951Z,25.21
2023-03-21T00:52:57.973Z,25.23
2023-03-21T00:56:58.142Z,25.24
2023-03-21T01:00:58.346Z,25.21
2023-03-21T01:04:58.498Z,25.27
2023-03-21T01:08:58.667Z,25.23
2023-03-21T01:12:58.839Z,25.26
2023-03-21T01:16:59.039Z,25.24
2023-03-21T01:20:59.136Z,25.23
2023-03-21T01:25:12.050Z,25.24
2023-03-21T01:29:00.288Z,25.23
2023-03-21T01:32:59.244Z,25.24
2023-03-21T01:36:59.219Z,25.24
2023-03-21T01:41:00.485Z,25.24
2023-03-21T01:44:59.470Z,25.23
2023-03-21T01:48:59.625Z,25.23
2023-03-21T01:52:59.749Z,25.24
2023-03-21T01:56:59.917Z,25.26
2023-03-21T02:01:00.151Z,25.23
2023-03-21T02:05:00.236Z,25.21
2023-03-21T02:09:00.421Z,25.24
2023-03-21T02:13:00.550Z,25.26
2023-03-21T02:17:00.738Z,25.26
2023-03-21T02:21:00.914Z,25.26
2023-03-21T02:25:04.464Z,25.24
2023-03-21T02:29:02.042Z,25.24
2023-03-21T02:33:00.999Z,25.27
2023-03-21T02:37:01.020Z,25.26
2023-03-21T02:41:03.425Z,25.24
2023-03-21T02:45:01.301Z,25.24
2023-03-21T02:49:01.437Z,25.24
2023-03-21T02:53:01.610Z,25.26
2023-03-21T02:57:01.747Z,25.26
2023-03-21T03:01:01.920Z,25.23
2023-03-21T03:05:06.438Z,25.24
2023-03-21T03:09:03.330Z,25.27
2023-03-21T03:13:02.010Z,25.26
2023-03-21T03:17:01.994Z,25.27
2023-03-21T03:21:02.246Z,25.28
2023-03-21T03:25:09.496Z,25.26
2023-03-21T03:29:03.267Z,25.26
2023-03-21T03:33:02.240Z,25.26
2023-03-21T03:37:02.276Z,25.28
2023-03-21T03:41:02.324Z,25.26
2023-03-21T03:45:02.482Z,25.28
2023-03-21T03:49:02.605Z,25.28
2023-03-21T03:53:07.115Z,25.30
2023-03-21T03:57:03.730Z,25.28
2023-03-21T04:01:02.699Z,25.27
2023-03-21T04:05:02.661Z,25.27
2023-03-21T04:09:10.516Z,25.28
2023-03-21T04:13:03.692Z,25.28
2023-03-21T04:17:02.644Z,25.27
2023-03-21T04:21:02.626Z,25.27
2023-03-21T04:25:02.738Z,25.27
2023-03-21T04:29:02.872Z,25.26
2023-03-21T04:33:02.996Z,25.28
2023-03-21T04:37:03.134Z,25.26
2023-03-21T04:41:03.276Z,25.27
2023-03-21T04:45:03.411Z,25.27
2023-03-21T04:49:03.510Z,25.28
2023-03-21T04:53:03.679Z,25.31
2023-03-21T04:57:03.815Z,25.33
2023-03-21T05:01:03.998Z,25.28
2023-03-21T05:05:04.104Z,25.31
2023-03-21T05:09:04.232Z,25.31
2023-03-21T05:13:04.459Z,25.30
2023-03-21T05:17:04.597Z,25.28
2023-03-21T05:21:04.680Z,25.27
2023-03-21T05:25:04.851Z,25.31
2023-03-21T05:29:04.978Z,25.28
2023-03-21T05:33:05.172Z,25.30
2023-03-21T05:37:05.269Z,25.28
2023-03-21T05:41:05.439Z,25.30
2023-03-21T05:45:05.532Z,25.31
2023-03-21T05:49:05.692Z,25.30
2023-03-21T05:53:05.839Z,25.30
2023-03-21T05:57:06.043Z,25.30
2023-03-21T06:01:06.118Z,25.30
2023-03-21T06:05:06.280Z,25.28
2023-03-21T06:09:06.297Z,25.20
2023-03-21T06:13:06.237Z,25.06
2023-03-21T06:17:06.165Z,24.99
2023-03-21T06:21:06.136Z,24.94
2023-03-21T06:25:06.111Z,24.94
2023-03-21T06:29:06.074Z,24.94
2023-03-21T06:33:06.011Z,24.94
2023-03-21T06:37:06.024Z,24.94
2023-03-21T06:41:05.983Z,24.96
2023-03-21T06:45:05.913Z,24.76
2023-03-21T06:49:05.894Z,24.55
2023-03-21T06:53:05.842Z,24.59
2023-03-21T06:57:05.834Z,23.87
2023-03-21T07:01:05.810Z,23.40
2023-03-21T07:05:05.726Z,23.32
2023-03-21T07:09:05.699Z,23.73
2023-03-21T07:13:05.667Z,24.22
2023-03-21T07:17:05.671Z,24.66
2023-03-21T07:21:06.190Z,25.06
2023-03-21T07:25:05.772Z,25.33
2023-03-21T07:29:05.531Z,25.58
2023-03-21T07:33:05.571Z,25.77
2023-03-21T07:37:05.666Z,25.88
2023-03-21T07:41:05.662Z,26.00
2023-03-21T07:45:05.727Z,26.10
2023-03-21T07:49:05.850Z,26.19
2023-03-21T07:53:05.959Z,25.84
2023-03-21T07:57:06.015Z,25.75
2023-03-21T08:01:06.089Z,25.62
2023-03-21T08:05:06.182Z,25.65
2023-03-21T08:09:06.243Z,25.68
2023-03-21T08:13:06.286Z,25.68
2023-03-21T08:17:06.356Z,25.68
2023-03-21T08:21:08.270Z,25.68
2023-03-21T08:25:06.436Z,25.65
2023-03-21T08:29:06.268Z,25.64
2023-03-21T08:33:06.237Z,25.65
2023-03-21T08:37:06.230Z,25.64
2023-03-21T08:41:06.195Z,25.61
2023-03-21T08:45:06.117Z,25.68
2023-03-21T08:49:06.092Z,25.64
2023-03-21T08:53:06.064Z,25.00
2023-03-21T08:57:06.029Z,24.63
2023-03-21T09:01:06.006Z,24.29
2023-03-21T09:05:05.972Z,24.03
2023-03-21T09:09:05.917Z,24.03
2023-03-21T09:13:05.892Z,24.49
2023-03-21T09:17:05.850Z,24.87
2023-03-21T09:21:05.801Z,25.21
2023-03-21T09:25:05.808Z,25.44
2023-03-21T09:29:05.780Z,25.71
2023-03-21T09:33:05.712Z,25.87
2023-03-21T09:37:05.690Z,25.96
2023-03-21T09:41:05.641Z,26.08
2023-03-21T09:45:05.639Z,25.95
2023-03-21T09:49:05.568Z,25.68
2023-03-21T09:53:05.557Z,25.68
2023-03-21T09:57:05.674Z,25.33
2023-03-21T10:01:05.779Z,25.10
2023-03-21T10:05:05.908Z,25.33
2023-03-21T10:09:05.985Z,25.57
2023-03-21T10:13:06.066Z,25.84
2023-03-21T10:17:06.110Z,26.08
2023-03-21T10:21:06.346Z,26.26
2023-03-21T10:25:06.573Z,26.39
2023-03-21T10:29:06.853Z,26.50
2023-03-21T10:33:06.932Z,26.60
2023-03-21T10:37:07.027Z,26.67
2023-03-21T10:41:07.145Z,26.74
2023-03-21T10:45:07.226Z,26.80
2023-03-21T10:49:07.329Z,26.71
2023-03-21T10:53:07.410Z,26.36
2023-03-21T10:57:07.447Z,25.85
2023-03-21T11:01:07.560Z,26.00
2023-03-21T11:05:07.597Z,26.23
2023-03-21T11:09:07.797Z,26.43
2023-03-21T11:13:07.954Z,26.60
2023-03-21T11:17:08.211Z,26.67
2023-03-21T11:21:08.137Z,26.78
2023-03-21T11:25:08.197Z,26.88
2023-03-21T11:29:08.171Z,26.93
2023-03-21T11:33:08.202Z,26.95
2023-03-21T11:37:08.233Z,26.98
2023-03-21T11:41:08.347Z,27.02
2023-03-21T11:45:08.415Z,26.91
2023-03-21T11:49:08.524Z,26.13
2023-03-21T11:53:08.608Z,25.87
2023-03-21T11:57:08.667Z,26.09
2023-03-21T12:01:08.840Z,26.33
2023-03-21T12:05:08.969Z,26.53
2023-03-21T12:09:09.042Z,26.66
2023-03-21T12:13:09.056Z,26.81
2023-03-21T12:17:09.113Z,26.91
2023-03-21T12:21:09.207Z,26.98
2023-03-21T12:25:09.394Z,27.04
2023-03-21T12:29:09.362Z,27.14
2023-03-21T12:33:09.327Z,27.21
2023-03-21T12:37:09.324Z,27.01
2023-03-21T12:41:09.341Z,26.25
2023-03-21T12:45:15.224Z,25.91
2023-03-21T12:49:10.269Z,25.55
2023-03-21T12:53:09.116Z,25.45
2023-03-21T12:57:09.194Z,25.48
2023-03-21T13:01:09.334Z,25.48
2023-03-21T13:05:09.380Z,25.45
2023-03-21T13:09:09.590Z,25.30
2023-03-21T13:13:09.921Z,25.10
2023-03-21T13:17:09.893Z,25.03
2023-03-21T13:21:10.005Z,24.96
2023-03-21T13:25:10.097Z,24.62
2023-03-21T13:29:10.295Z,24.60
2023-03-21T13:33:10.282Z,24.62
2023-03-21T13:37:10.333Z,24.60
2023-03-21T13:41:10.399Z,24.59
2023-03-21T13:45:10.549Z,24.60
2023-03-21T13:49:10.520Z,24.58
2023-03-21T13:53:10.561Z,24.59
2023-03-21T13:57:10.628Z,24.58
2023-03-21T14:05:29.858Z,24.54
2023-03-21T14:09:29.660Z,24.52
2023-03-21T14:13:31.255Z,24.49
2023-03-21T14:17:29.820Z,24.45
2023-03-21T14:21:29.948Z,24.45
2023-03-21T14:25:36.900Z,24.43
2023-03-21T14:29:31.848Z,24.42
2023-03-21T14:33:29.853Z,24.39
2023-03-21T14:37:29.889Z,24.39
2023-03-21T14:41:29.792Z,24.36
2023-03-21T14:45:29.947Z,24.32
2023-03-21T14:49:30.064Z,24.34
2023-03-21T14:53:30.292Z,24.35
2023-03-21T14:57:30.295Z,24.31
2023-03-21T15:01:30.461Z,24.31
2023-03-21T15:05:30.610Z,24.28
2023-03-21T15:09:30.854Z,24.28
2023-03-21T15:13:30.885Z,24.25
2023-03-21T15:17:31.032Z,24.22
2023-03-21T15:21:31.204Z,24.22
2023-03-21T15:25:31.435Z,24.22
2023-03-21T15:29:31.498Z,24.24
2023-03-21T15:33:31.623Z,24.22
2023-03-21T15:37:31.798Z,24.19
2023-03-21T15:41:32.059Z,24.22
2023-03-21T15:45:32.157Z,24.18
2023-03-21T15:49:32.273Z,24.18
2023-03-21T15:53:32.437Z,24.18
2023-03-21T15:57:32.721Z,24.15
2023-03-21T16:01:32.735Z,24.15
2023-03-21T16:05:32.907Z,24.18
2023-03-21T16:09:33.063Z,24.15
2023-03-21T16:13:33.326Z,24.12
2023-03-21T16:17:33.464Z,24.14
2023-03-21T16:21:33.572Z,24.14
2023-03-21T16:25:33.712Z,24.11
2023-03-21T16:29:33.895Z,24.14
2023-03-21T16:33:34.028Z,24.11
2023-03-21T16:37:34.224Z,24.12
2023-03-21T16:41:34.357Z,24.11
2023-03-21T16:45:34.599Z,24.11
2023-03-21T16:49:34.686Z,24.09
2023-03-21T16:53:34.808Z,24.08
2023-03-21T16:57:34.974Z,24.05
2023-03-21T17:01:35.168Z,24.04
2023-03-21T17:05:35.280Z,24.03
2023-03-21T17:09:35.433Z,24.05
2023-03-21T17:13:35.576Z,24.03
2023-03-21T17:17:35.755Z,24.03
2023-03-21T17:21:35.893Z,24.00
2023-03-21T17:25:36.062Z,23.98
2023-03-21T17:29:36.247Z,23.98
2023-03-21T17:33:36.424Z,23.98
2023-03-21T17:37:36.567Z,23.98
2023-03-21T17:41:36.762Z,23.98
2023-03-21T17:45:36.986Z,23.96
2023-03-21T17:49:37.150Z,23.94
2023-03-21T17:53:37.359Z,23.91
2023-03-21T17:57:37.600Z,23.89
2023-03-21T18:01:37.840Z,23.88
2023-03-21T18:05:37.983Z,23.85
2023-03-21T18:09:38.175Z,23.87
2023-03-21T18:13:38.481Z,23.84
2023-03-21T18:17:38.575Z,23.85
2023-03-21T18:21:38.768Z,23.87
2023-03-21T18:25:39.015Z,23.81
2023-03-21T18:30:25.823Z,23.84
2023-03-21T18:33:40.166Z,23.83
2023-03-21T18:37:39.098Z,23.81
2023-03-21T18:41:39.262Z,23.83
2023-03-21T18:45:39.443Z,23.80
2023-03-21T18:53:40.396Z,23.77
2023-03-21T18:57:39.524Z,23.71
2023-03-21T19:01:39.698Z,23.67
2023-03-21T19:05:39.758Z,23.70
2023-03-21T19:10:01.481Z,23.68
2023-03-21T19:13:40.700Z,23.71
2023-03-21T19:21:40.624Z,23.67
2023-03-21T19:25:39.588Z,23.63
2023-03-21T19:29:39.649Z,23.61
2023-03-21T19:33:39.774Z,23.61
2023-03-21T19:37:39.907Z,23.57
2023-03-21T19:41:40.686Z,23.57
2023-03-21T19:45:40.314Z,23.56
2023-03-21T19:50:15.819Z,23.54
2023-03-21T19:53:41.353Z,23.56
2023-03-21T19:57:40.328Z,23.53
2023-03-21T20:01:40.338Z,23.49
2023-03-21T20:05:40.233Z,23.50
2023-03-21T20:09:52.286Z,23.49
2023-03-21T20:13:41.194Z,23.47
2023-03-21T20:17:40.192Z,23.49
2023-03-21T20:21:49.135Z,23.49
2023-03-21T20:25:41.106Z,23.47
2023-03-21T20:30:10.424Z,23.45
2023-03-21T20:33:41.021Z,23.45
2023-03-21T20:37:39.964Z,23.42
2023-03-21T20:41:39.929Z,23.40
2023-03-21T20:45:39.901Z,23.39
2023-03-21T20:49:40.334Z,23.36
2023-03-21T20:53:39.835Z,23.37
2023-03-21T20:57:39.800Z,23.33
2023-03-21T21:01:39.842Z,23.30
2023-03-21T21:05:39.909Z,23.29
2023-03-21T21:09:39.951Z,23.27
2023-03-21T21:13:39.994Z,23.50
2023-03-21T21:18:04.763Z,23.76
2023-03-21T21:21:41.135Z,24.01
2023-03-21T21:25:40.109Z,24.15
2023-03-21T21:29:40.104Z,24.28
2023-03-21T21:33:40.060Z,24.39
2023-03-21T21:37:40.067Z,24.46
2023-03-21T21:41:40.092Z,24.51
2023-03-21T21:45:40.102Z,24.58
2023-03-21T21:49:40.163Z,24.60
2023-03-21T21:53:40.216Z,24.65
2023-03-21T21:57:40.236Z,24.65
2023-03-21T22:01:40.260Z,24.69
2023-03-21T22:05:40.277Z,24.69
2023-03-21T22:09:40.349Z,24.73
2023-03-21T22:13:40.382Z,24.76
2023-03-21T22:17:40.438Z,24.76
2023-03-21T22:21:40.505Z,24.75
2023-03-21T22:25:40.558Z,24.80
2023-03-21T22:29:40.664Z,24.80
2023-03-21T22:33:40.716Z,24.80
2023-03-21T22:37:40.868Z,24.83
2023-03-21T22:41:40.998Z,24.86
2023-03-21T22:45:41.198Z,24.87
2023-03-21T22:49:41.347Z,24.86
2023-03-21T22:53:41.530Z,24.90
2023-03-21T22:57:41.676Z,24.90
2023-03-21T23:01:41.855Z,24.91
2023-03-21T23:05:41.982Z,24.91
2023-03-21T23:09:42.206Z,24.93
2023-03-21T23:13:42.385Z,24.91
2023-03-21T23:17:42.528Z,24.93
2023-03-21T23:21:42.744Z,24.96
2023-03-21T23:25:42.981Z,24.96
2023-03-21T23:29:43.192Z,24.96
2023-03-21T23:33:43.389Z,24.97
2023-03-21T23:37:43.588Z,24.96
2023-03-21T23:41:43.822Z,24.97
2023-03-21T23:45:44.027Z,24.97
2023-03-21T23:49:44.250Z,25.00
2023-03-21T23:53:44.492Z,25.00
2023-03-21T23:57:44.673Z,24.99
